Time;durP1;ratioP1;P1;durP2;ratioP2;P2;SDS_P1;SDS_P2;PMS_P1;PMS_P2;Temp;Humidity;BMP_temperature;BMP_pressure;BME280_temperature;BME280_humidity;BME280_pressure;Samples;Min_cycle;Max_cycle;Signal;HPM_P1;HPM_P2
2023/09/30 00:01:58;;;;;;;4.15;2.33;;;17.70;70.50;;;;;;4998790;28;20064;-78
2023/09/30 00:04:24;;;;;;;3.42;2.00;;;17.70;70.60;;;;;;4999099;28;20038;-78
2023/09/30 00:06:50;;;;;;;4.18;2.05;;;17.70;70.60;;;;;;4982625;28;20034;-78
2023/09/30 00:09:15;;;;;;;3.55;2.15;;;17.70;70.60;;;;;;4995191;28;20484;-79
2023/09/30 00:11:41;;;;;;;4.15;2.20;;;17.70;70.60;;;;;;4979323;28;20046;-78
2023/09/30 00:14:07;;;;;;;3.90;2.20;;;17.60;70.60;;;;;;4995267;28;20039;-78
2023/09/30 00:16:33;;;;;;;4.03;2.17;;;17.60;70.60;;;;;;4995415;28;20039;-78
2023/09/30 00:18:58;;;;;;;4.82;2.22;;;17.60;70.70;;;;;;5012485;28;20034;-78
2023/09/30 00:21:25;;;;;;;4.95;2.40;;;17.60;70.70;;;;;;4979422;28;20034;-78
2023/09/30 00:23:50;;;;;;;3.20;2.10;;;17.60;70.70;;;;;;5011490;28;20045;-78
2023/09/30 00:26:16;;;;;;;5.80;2.28;;;17.50;70.70;;;;;;5011986;28;20135;-78
2023/09/30 00:28:45;;;;;;;4.15;2.28;;;17.50;70.70;;;;;;4995562;28;20074;-78
2023/09/30 00:31:11;;;;;;;4.18;2.42;;;17.50;70.80;;;;;;4963621;28;20468;-78
2023/09/30 00:33:37;;;;;;;3.45;2.10;;;17.50;70.70;;;;;;4979002;28;20022;-78
2023/09/30 00:36:08;;;;;;;4.50;2.30;;;17.50;70.80;;;;;;4995848;28;20053;-78
2023/09/30 00:38:34;;;;;;;3.63;2.13;;;17.50;70.80;;;;;;4994873;28;20081;-78
2023/09/30 00:41:00;;;;;;;5.47;2.58;;;17.40;70.70;;;;;;4978784;28;20035;-78
2023/09/30 00:43:26;;;;;;;4.53;2.13;;;17.40;70.80;;;;;;4994666;28;20045;-78
2023/09/30 00:46:17;;;;;;;4.88;2.30;;;17.40;70.90;;;;;;4978702;28;20439;-78
2023/09/30 00:48:44;;;;;;;4.18;1.95;;;17.40;70.90;;;;;;4995630;28;20035;-78
2023/09/30 00:51:10;;;;;;;4.40;2.30;;;17.40;70.90;;;;;;4994735;28;20035;-78
2023/09/30 00:53:37;;;;;;;5.85;2.50;;;17.30;70.80;;;;;;4979031;28;20038;-78
2023/09/30 00:56:03;;;;;;;4.72;2.35;;;17.30;70.90;;;;;;4978643;28;20464;-78
2023/09/30 00:58:30;;;;;;;5.63;2.50;;;17.30;70.90;;;;;;4962360;28;20356;-78
2023/09/30 01:00:58;;;;;;;4.28;2.20;;;17.30;70.90;;;;;;4994477;28;20049;-78
2023/09/30 01:03:23;;;;;;;5.85;2.42;;;17.30;70.90;;;;;;4978438;28;20027;-78
2023/09/30 01:05:49;;;;;;;5.45;2.35;;;17.20;71.50;;;;;;4994472;28;20105;-78
2023/09/30 01:08:16;;;;;;;5.15;2.25;;;17.30;71.00;;;;;;4962057;28;20495;-78
2023/09/30 01:10:43;;;;;;;4.82;2.40;;;17.20;70.90;;;;;;4978680;28;20037;-78
2023/09/30 01:13:09;;;;;;;4.55;2.40;;;17.30;71.00;;;;;;4995207;28;20525;-78
2023/09/30 01:15:34;;;;;;;3.92;2.20;;;17.20;70.90;;;;;;4978159;28;20026;-78
2023/09/30 01:18:00;;;;;;;3.45;2.10;;;17.20;71.00;;;;;;4978035;28;20034;-78
2023/09/30 01:20:27;;;;;;;5.07;2.28;;;17.20;71.00;;;;;;5010456;28;20038;-78
2023/09/30 01:22:55;;;;;;;4.65;2.45;;;17.10;70.90;;;;;;5011117;28;20454;-78
2023/09/30 01:25:21;;;;;;;4.82;2.45;;;17.10;70.90;;;;;;4962125;28;20534;-78
2023/09/30 01:27:47;;;;;;;4.40;2.47;;;17.10;71.00;;;;;;4978602;28;20058;-78
2023/09/30 01:30:13;;;;;;;4.38;2.25;;;17.10;71.00;;;;;;4977939;28;20053;-78
2023/09/30 01:32:40;;;;;;;3.78;2.20;;;17.10;71.00;;;;;;4993678;28;20031;-78
2023/09/30 01:35:06;;;;;;;4.18;2.40;;;17.10;71.00;;;;;;5009841;28;20042;-78
2023/09/30 01:37:32;;;;;;;3.53;2.10;;;17.10;71.00;;;;;;5010128;28;20042;-78
2023/09/30 01:39:58;;;;;;;3.78;1.98;;;17.00;71.00;;;;;;4994692;28;20026;-78
2023/09/30 01:42:23;;;;;;;3.78;2.10;;;17.00;71.00;;;;;;5009875;28;20030;-78
2023/09/30 01:44:49;;;;;;;3.53;2.13;;;17.00;71.00;;;;;;4977333;28;20138;-78
2023/09/30 01:47:15;;;;;;;4.45;2.40;;;17.00;71.00;;;;;;4977737;28;20061;-78
2023/09/30 01:49:41;;;;;;;4.50;2.20;;;17.00;71.00;;;;;;4993528;28;20073;-78
2023/09/30 01:52:06;;;;;;;3.55;2.10;;;17.00;71.10;;;;;;4961972;28;20447;-78
2023/09/30 01:54:32;;;;;;;3.75;2.13;;;16.90;71.00;;;;;;5009920;28;20034;-78
2023/09/30 01:56:58;;;;;;;3.78;2.20;;;16.90;71.00;;;;;;4993547;28;20510;-78
2023/09/30 01:59:24;;;;;;;3.85;2.03;;;16.90;71.10;;;;;;4961488;28;20038;-78
2023/09/30 02:01:50;;;;;;;5.10;2.65;;;16.90;71.10;;;;;;4994011;28;20078;-78
2023/09/30 02:04:17;;;;;;;4.78;2.65;;;16.90;71.10;;;;;;4961352;28;20465;-78
2023/09/30 02:06:42;;;;;;;4.20;2.40;;;16.80;71.10;;;;;;4994391;28;20026;-78
2023/09/30 02:09:09;;;;;;;3.70;2.58;;;16.80;71.10;;;;;;4977168;28;20080;-78
2023/09/30 02:11:37;;;;;;;4.82;2.60;;;16.80;71.10;;;;;;4993878;28;20120;-78
2023/09/30 02:14:05;;;;;;;4.22;2.25;;;16.80;71.10;;;;;;4993244;28;20033;-78
2023/09/30 02:16:31;;;;;;;4.97;2.75;;;16.80;71.10;;;;;;5009382;28;20030;-78
2023/09/30 02:18:59;;;;;;;4.80;2.70;;;16.80;71.10;;;;;;5009183;28;20394;-78
2023/09/30 02:21:24;;;;;;;3.80;2.28;;;16.70;71.10;;;;;;4976820;28;20065;-78
2023/09/30 02:23:54;;;;;;;3.80;2.28;;;16.70;71.10;;;;;;4993211;28;20058;-78
2023/09/30 02:26:21;;;;;;;3.53;2.25;;;16.70;71.10;;;;;;4994554;28;20042;-78
2023/09/30 02:28:48;;;;;;;4.03;2.20;;;16.70;71.20;;;;;;4976816;28;20553;-78
2023/09/30 02:31:14;;;;;;;4.70;2.67;;;16.70;71.20;;;;;;5010154;28;20034;-78
2023/09/30 02:33:39;;;;;;;4.75;2.53;;;16.60;71.20;;;;;;4977412;28;20499;-78
2023/09/30 02:36:08;;;;;;;4.20;2.22;;;16.60;71.20;;;;;;4976873;28;20065;-78
2023/09/30 02:38:37;;;;;;;5.15;2.33;;;16.60;71.20;;;;;;4994284;28;20392;-78
2023/09/30 02:41:03;;;;;;;3.58;2.40;;;16.60;71.20;;;;;;4993364;28;20026;-78
2023/09/30 02:43:29;;;;;;;4.57;2.60;;;16.60;71.20;;;;;;5009233;28;20042;-78
2023/09/30 02:45:55;;;;;;;5.07;2.75;;;16.60;71.30;;;;;;5009160;28;20391;-78
2023/09/30 02:48:21;;;;;;;4.40;2.20;;;16.50;71.20;;;;;;4976888;28;20096;-78
2023/09/30 02:50:47;;;;;;;3.45;2.53;;;16.50;71.30;;;;;;4976599;28;20037;-78
2023/09/30 02:53:13;;;;;;;3.42;2.35;;;16.50;71.30;;;;;;4992712;28;20120;-78
2023/09/30 02:55:42;;;;;;;4.22;2.58;;;16.50;71.30;;;;;;4992570;28;20034;-78
2023/09/30 02:58:10;;;;;;;4.50;2.58;;;16.50;71.40;;;;;;4994529;28;20038;-78
2023/09/30 03:00:37;;;;;;;4.72;2.70;;;16.50;71.40;;;;;;4997684;28;20483;-78
2023/09/30 03:03:04;;;;;;;3.67;2.65;;;16.50;71.40;;;;;;4996839;28;20038;-78
2023/09/30 03:05:33;;;;;;;3.65;2.40;;;16.50;71.40;;;;;;4997570;28;20467;-78
2023/09/30 03:08:00;;;;;;;4.00;2.30;;;16.50;71.40;;;;;;4980286;28;20068;-78
2023/09/30 03:10:26;;;;;;;3.53;2.17;;;16.50;71.50;;;;;;5013162;28;20097;-78
2023/09/30 03:13:01;;;;;;;4.78;2.40;;;16.40;71.40;;;;;;4996602;28;20113;-78
2023/09/30 03:15:32;;;;;;;3.60;2.50;;;16.40;71.50;;;;;;4996236;28;20057;-78
2023/09/30 03:17:59;;;;;;;3.78;2.42;;;16.40;71.40;;;;;;4997560;28;20118;-78
2023/09/30 03:20:25;;;;;;;3.80;2.47;;;16.40;71.50;;;;;;5012752;28;20035;-78
2023/09/30 03:22:52;;;;;;;4.95;2.97;;;16.40;71.50;;;;;;5013478;28;20061;-78
2023/09/30 03:25:20;;;;;;;3.83;2.63;;;16.40;71.60;;;;;;5012761;28;20034;-78
2023/09/30 03:27:47;;;;;;;4.32;2.65;;;16.40;71.50;;;;;;4996294;28;20041;-78
2023/09/30 03:30:17;;;;;;;4.85;2.85;;;16.40;71.50;;;;;;4996262;28;20030;-78
2023/09/30 03:32:43;;;;;;;6.30;3.13;;;16.40;71.60;;;;;;4996235;28;20034;-78
2023/09/30 03:35:29;;;;;;;5.15;2.95;;;16.40;71.60;;;;;;4996427;28;20375;-78
2023/09/30 03:37:55;;;;;;;4.15;2.70;;;16.40;71.60;;;;;;4997570;28;20073;-78
2023/09/30 03:40:27;;;;;;;4.43;2.70;;;16.30;71.50;;;;;;4963757;28;20038;-78
2023/09/30 03:42:54;;;;;;;4.18;2.58;;;16.40;71.60;;;;;;5012629;28;20030;-78
2023/09/30 03:45:19;;;;;;;4.47;2.80;;;16.40;71.70;;;;;;4979981;28;20030;-78
2023/09/30 03:47:47;;;;;;;4.00;2.65;;;16.40;71.70;;;;;;4979437;28;20542;-78
2023/09/30 03:50:14;;;;;;;4.88;2.95;;;16.30;71.70;;;;;;4995613;28;20403;-78
2023/09/30 03:52:43;;;;;;;3.75;2.40;;;16.40;71.70;;;;;;4995843;28;20038;-78
2023/09/30 03:55:12;;;;;;;4.38;2.92;;;16.40;71.80;;;;;;5011938;28;20112;-78
2023/09/30 03:57:38;;;;;;;5.20;2.80;;;16.40;71.70;;;;;;4995719;28;20037;-78
2023/09/30 04:00:11;;;;;;;6.32;3.20;;;16.40;71.80;;;;;;4995944;28;20038;-78
2023/09/30 04:02:42;;;;;;;5.10;3.03;;;16.40;71.80;;;;;;4995551;28;20037;-78
2023/09/30 04:05:11;;;;;;;5.35;3.05;;;16.40;71.80;;;;;;4979610;28;20073;-78
2023/09/30 04:07:36;;;;;;;4.68;2.83;;;16.30;71.70;;;;;;4966080;28;20498;-78
2023/09/30 04:10:04;;;;;;;4.15;2.90;;;16.40;71.80;;;;;;5015296;28;20050;-78
2023/09/30 04:12:32;;;;;;;5.18;3.00;;;16.30;71.80;;;;;;5014913;28;20033;-78
2023/09/30 04:14:58;;;;;;;4.53;2.85;;;16.30;71.80;;;;;;4998584;28;20494;-78
2023/09/30 04:17:24;;;;;;;4.38;2.75;;;16.30;71.80;;;;;;4982885;28;20026;-78
2023/09/30 04:19:52;;;;;;;3.70;2.63;;;16.30;71.80;;;;;;4982416;28;20488;-79
2023/09/30 04:22:21;;;;;;;4.40;2.88;;;16.30;71.80;;;;;;4967028;28;20113;-78
2023/09/30 04:24:49;;;;;;;4.38;2.83;;;16.30;71.80;;;;;;5015014;28;20038;-78
2023/09/30 04:27:15;;;;;;;4.03;2.65;;;16.30;71.80;;;;;;4999143;28;20034;-78
2023/09/30 04:29:41;;;;;;;3.65;2.35;;;16.30;71.90;;;;;;5015570;28;20087;-79
2023/09/30 04:32:07;;;;;;;4.45;2.70;;;16.30;71.90;;;;;;4998542;28;20030;-78
2023/09/30 04:34:33;;;;;;;6.03;3.25;;;16.30;71.90;;;;;;4982983;28;20382;-78
2023/09/30 04:36:59;;;;;;;4.20;2.83;;;16.30;71.90;;;;;;5014165;28;20402;-78
2023/09/30 04:39:25;;;;;;;5.72;3.58;;;16.30;71.90;;;;;;5014483;28;20042;-78
2023/09/30 04:41:51;;;;;;;5.72;3.22;;;16.20;71.90;;;;;;4997953;28;20483;-78
2023/09/30 04:44:16;;;;;;;4.50;2.97;;;16.30;71.90;;;;;;4981999;28;20034;-78
2023/09/30 04:46:45;;;;;;;4.22;3.20;;;16.20;71.90;;;;;;4966281;28;20085;-78
2023/09/30 04:49:15;;;;;;;5.18;3.17;;;16.20;71.90;;;;;;4999121;28;20475;-78
2023/09/30 04:51:41;;;;;;;5.80;3.55;;;16.20;71.90;;;;;;4997908;28;20478;-78
2023/09/30 04:54:08;;;;;;;5.05;3.13;;;16.30;72.00;;;;;;5014204;28;20033;-78
2023/09/30 04:56:35;;;;;;;4.43;3.05;;;16.20;71.90;;;;;;4966049;28;20062;-78
2023/09/30 04:59:02;;;;;;;4.32;3.00;;;16.20;71.90;;;;;;4981605;28;20530;-78
2023/09/30 05:01:28;;;;;;;5.45;3.33;;;16.20;71.90;;;;;;4981302;28;20033;-78
2023/09/30 05:03:54;;;;;;;5.88;3.40;;;16.20;72.00;;;;;;4997446;28;20037;-78
2023/09/30 05:06:21;;;;;;;4.55;3.00;;;16.20;72.30;;;;;;4997882;28;20038;-78
2023/09/30 05:08:47;;;;;;;5.32;3.40;;;16.20;72.00;;;;;;5013734;28;20176;-78
2023/09/30 05:11:14;;;;;;;4.30;2.92;;;16.20;72.00;;;;;;4998017;28;20075;-78
2023/09/30 05:13:39;;;;;;;5.28;3.55;;;16.20;72.10;;;;;;4981848;28;20042;-78
2023/09/30 05:16:07;;;;;;;5.72;3.58;;;16.20;72.00;;;;;;4997309;28;20030;-79
2023/09/30 05:18:33;;;;;;;4.50;3.28;;;16.10;72.00;;;;;;4965704;28;20038;-78
2023/09/30 05:20:59;;;;;;;6.40;3.67;;;16.20;72.10;;;;;;4996722;28;20065;-78
2023/09/30 05:23:25;;;;;;;5.25;3.33;;;16.20;72.10;;;;;;4964820;28;20485;-78
2023/09/30 05:25:51;;;;;;;5.43;3.20;;;16.20;72.10;;;;;;4981062;28;20111;-78
2023/09/30 05:28:17;;;;;;;6.70;3.22;;;16.20;72.10;;;;;;4981372;28;20471;-78
2023/09/30 05:30:43;;;;;;;4.90;3.30;;;16.20;72.10;;;;;;4997143;28;20041;-78
2023/09/30 05:33:14;;;;;;;5.45;3.22;;;16.20;72.10;;;;;;4996762;28;20030;-78
2023/09/30 05:35:41;;;;;;;5.10;3.50;;;16.20;72.10;;;;;;4997389;28;20451;-78
2023/09/30 05:38:10;;;;;;;5.60;3.50;;;16.10;72.10;;;;;;5013312;28;20048;-78
2023/09/30 05:40:36;;;;;;;5.80;3.58;;;16.10;72.10;;;;;;4997771;28;20034;-78
2023/09/30 05:43:02;;;;;;;4.72;3.47;;;16.10;72.10;;;;;;5014544;28;20106;-78
2023/09/30 05:45:35;;;;;;;5.18;3.60;;;16.10;72.10;;;;;;4981089;28;20125;-78
2023/09/30 05:48:07;;;;;;;5.97;3.40;;;16.10;72.10;;;;;;5013357;28;20065;-78
2023/09/30 05:50:36;;;;;;;5.25;3.40;;;16.10;72.10;;;;;;4997088;28;20044;-79
2023/09/30 05:53:02;;;;;;;5.38;3.33;;;16.10;72.10;;;;;;4980665;28;20061;-78
2023/09/30 05:55:29;;;;;;;5.85;3.88;;;16.10;72.10;;;;;;4997030;28;20374;-78
2023/09/30 05:57:55;;;;;;;5.50;3.42;;;16.10;72.10;;;;;;4980765;28;20033;-78
2023/09/30 06:00:34;;;;;;;5.05;3.60;;;16.10;72.10;;;;;;5014474;28;20068;-78
2023/09/30 06:03:00;;;;;;;5.72;4.05;;;16.10;72.20;;;;;;5015111;28;20033;-78
2023/09/30 06:05:26;;;;;;;4.72;3.53;;;16.10;72.20;;;;;;4980436;28;20029;-78
2023/09/30 06:07:54;;;;;;;5.75;3.58;;;16.10;72.20;;;;;;4964456;28;20033;-78
2023/09/30 06:10:19;;;;;;;5.55;3.88;;;16.10;72.20;;;;;;4997766;28;20030;-78
2023/09/30 06:12:46;;;;;;;5.53;3.63;;;16.10;72.20;;;;;;4981017;28;20138;-78
2023/09/30 06:15:14;;;;;;;6.00;3.97;;;16.10;72.20;;;;;;4980619;28;20471;-79
2023/09/30 06:17:40;;;;;;;6.80;3.67;;;16.00;72.20;;;;;;4996018;28;20056;-78
2023/09/30 06:20:15;;;;;;;5.45;3.58;;;16.10;72.20;;;;;;4980555;28;20049;-79
2023/09/30 06:22:43;;;;;;;5.72;3.92;;;16.10;72.20;;;;;;4998674;28;20042;-79
2023/09/30 06:25:09;;;;;;;6.15;4.18;;;16.10;72.20;;;;;;5013576;28;20060;-79
2023/09/30 06:27:35;;;;;;;4.65;3.15;;;16.10;72.20;;;;;;4996281;28;20036;-78
2023/09/30 06:30:01;;;;;;;5.07;3.35;;;16.10;72.20;;;;;;4980450;28;20034;-78
2023/09/30 06:32:27;;;;;;;5.45;3.38;;;16.00;72.20;;;;;;5013903;28;20437;-79
2023/09/30 06:34:53;;;;;;;5.35;3.80;;;16.00;72.20;;;;;;5013449;28;20030;-79
2023/09/30 06:37:19;;;;;;;5.38;4.07;;;16.10;72.20;;;;;;4996809;28;20034;-79
2023/09/30 06:39:45;;;;;;;6.05;3.90;;;16.10;72.30;;;;;;4980034;28;20041;-78
2023/09/30 06:42:11;;;;;;;5.80;3.83;;;16.00;72.20;;;;;;4996483;28;20026;-79
2023/09/30 06:44:36;;;;;;;5.53;3.80;;;16.00;72.30;;;;;;4995954;28;20034;-78
2023/09/30 06:47:02;;;;;;;5.10;3.60;;;16.00;72.20;;;;;;4979842;28;20034;-79
2023/09/30 06:49:28;;;;;;;6.22;3.72;;;16.00;72.30;;;;;;4996005;28;20398;-79
2023/09/30 06:51:54;;;;;;;5.30;3.35;;;16.00;72.30;;;;;;5013471;28;20033;-78
2023/09/30 06:54:20;;;;;;;4.57;3.28;;;16.00;72.30;;;;;;4995981;28;20449;-79
2023/09/30 06:56:45;;;;;;;4.72;3.47;;;16.00;72.30;;;;;;5012250;28;20108;-79
2023/09/30 06:59:11;;;;;;;6.00;4.13;;;16.10;72.40;;;;;;4979667;28;20040;-79
2023/09/30 07:01:37;;;;;;;5.15;3.58;;;16.00;72.30;;;;;;4996252;28;20069;-79
2023/09/30 07:04:03;;;;;;;6.53;3.50;;;16.00;72.40;;;;;;5012155;28;20030;-79
2023/09/30 07:06:28;;;;;;;4.18;3.05;;;16.00;72.40;;;;;;4979535;28;20038;-79
2023/09/30 07:08:54;;;;;;;5.40;3.78;;;16.00;72.40;;;;;;4995501;28;20062;-79
2023/09/30 07:11:28;;;;;;;5.05;3.50;;;16.00;72.40;;;;;;4963648;28;20541;-79
2023/09/30 07:13:54;;;;;;;5.25;3.80;;;16.00;72.40;;;;;;4996527;28;20038;-79
2023/09/30 07:16:20;;;;;;;5.38;3.78;;;16.00;72.40;;;;;;4996017;28;20034;-78
2023/09/30 07:18:45;;;;;;;4.57;3.47;;;16.00;72.40;;;;;;5013240;28;20416;-79
2023/09/30 07:21:12;;;;;;;5.32;3.30;;;16.00;72.40;;;;;;4963719;28;20041;-80
2023/09/30 07:23:38;;;;;;;6.57;3.45;;;16.00;72.40;;;;;;5012118;28;20030;-79
2023/09/30 07:26:04;;;;;;;6.22;3.67;;;16.00;72.40;;;;;;4979825;28;20117;-79
2023/09/30 07:28:31;;;;;;;5.30;3.72;;;16.10;72.50;;;;;;4979828;28;20061;-79
2023/09/30 07:30:57;;;;;;;4.90;3.35;;;16.10;72.50;;;;;;4996094;28;20046;-79
2023/09/30 07:33:22;;;;;;;4.45;3.17;;;16.10;72.50;;;;;;4979750;28;20120;-79
2023/09/30 07:35:49;;;;;;;4.95;3.38;;;16.10;72.50;;;;;;4979891;28;20379;-79
2023/09/30 07:38:15;;;;;;;4.70;3.42;;;16.00;72.50;;;;;;4980536;28;20030;-79
2023/09/30 07:40:41;;;;;;;5.80;3.85;;;16.10;72.50;;;;;;5013131;28;20037;-79
2023/09/30 07:43:07;;;;;;;5.47;3.15;;;16.10;72.50;;;;;;4995627;28;20061;-80
2023/09/30 07:45:33;;;;;;;4.97;3.47;;;16.10;72.50;;;;;;4998937;28;20034;-79
2023/09/30 07:47:59;;;;;;;5.22;3.63;;;16.10;72.50;;;;;;5015435;28;20109;-79
2023/09/30 07:50:25;;;;;;;4.45;2.88;;;16.10;72.50;;;;;;4999623;28;20042;-79
2023/09/30 07:52:51;;;;;;;5.40;3.65;;;16.10;72.40;;;;;;4982843;28;20034;-79
2023/09/30 07:55:17;;;;;;;5.28;3.63;;;16.10;72.40;;;;;;5016039;28;20044;-91
2023/09/30 07:57:43;;;;;;;5.25;3.72;;;16.10;72.50;;;;;;4951007;28;20084;-79
2023/09/30 08:00:14;;;;;;;4.50;3.13;;;16.20;72.50;;;;;;5016059;28;20133;-79
2023/09/30 08:02:41;;;;;;;4.88;3.47;;;16.10;72.40;;;;;;4999675;28;20037;-79
2023/09/30 08:05:07;;;;;;;4.68;3.10;;;16.20;72.50;;;;;;5015905;28;20070;-84
2023/09/30 08:07:34;;;;;;;4.07;2.83;;;16.20;72.50;;;;;;4999409;28;20026;-79
2023/09/30 08:10:00;;;;;;;4.70;3.25;;;16.20;72.50;;;;;;5016756;28;20501;-79
2023/09/30 08:12:25;;;;;;;4.95;3.30;;;16.30;72.60;;;;;;5016321;28;20121;-78
2023/09/30 08:14:52;;;;;;;5.10;3.17;;;16.20;73.10;;;;;;4982453;28;20125;-79
2023/09/30 08:17:18;;;;;;;4.38;3.05;;;16.20;72.50;;;;;;4998502;28;20104;-78
2023/09/30 08:19:47;;;;;;;4.97;3.30;;;16.20;72.40;;;;;;5017016;28;20045;-78
2023/09/30 08:22:14;;;;;;;5.28;3.58;;;16.30;72.50;;;;;;4998761;28;20168;-78
2023/09/30 08:24:40;;;;;;;4.93;3.20;;;16.30;72.50;;;;;;4998903;28;20534;-78
2023/09/30 08:27:06;;;;;;;4.68;3.10;;;16.30;72.50;;;;;;4982243;28;20113;-78
2023/09/30 08:29:38;;;;;;;5.55;3.50;;;16.30;72.50;;;;;;4998442;28;20052;-78
2023/09/30 08:32:04;;;;;;;4.65;3.28;;;16.30;72.50;;;;;;4999573;28;20041;-78
2023/09/30 08:34:30;;;;;;;4.95;3.28;;;16.30;72.40;;;;;;4966204;28;20494;-79
2023/09/30 08:36:57;;;;;;;5.20;3.22;;;16.30;72.40;;;;;;4981948;28;20037;-79
2023/09/30 08:39:24;;;;;;;4.68;3.13;;;16.30;72.50;;;;;;5014506;28;20034;-80
2023/09/30 08:41:50;;;;;;;4.55;3.13;;;16.40;72.50;;;;;;4998104;28;20088;-80
2023/09/30 08:44:16;;;;;;;4.60;3.08;;;16.40;72.50;;;;;;4981896;28;20534;-80
2023/09/30 08:46:43;;;;;;;5.13;3.30;;;16.40;72.50;;;;;;4998797;28;20116;-80
2023/09/30 08:49:11;;;;;;;4.93;3.15;;;16.50;72.60;;;;;;5014591;28;20108;-79
2023/09/30 08:51:38;;;;;;;4.50;3.10;;;16.50;72.60;;;;;;4998800;28;20038;-80
2023/09/30 08:54:05;;;;;;;4.55;3.00;;;16.50;72.50;;;;;;4999025;28;20033;-80
2023/09/30 08:56:34;;;;;;;4.78;3.10;;;16.60;72.50;;;;;;4982996;28;20443;-82
2023/09/30 08:59:02;;;;;;;5.47;3.20;;;16.60;72.50;;;;;;4983214;28;20046;-79
2023/09/30 09:01:29;;;;;;;4.47;3.28;;;16.60;72.40;;;;;;4981761;28;20030;-79
2023/09/30 09:03:56;;;;;;;4.38;2.83;;;16.70;72.50;;;;;;5014074;28;20022;-78
2023/09/30 09:06:23;;;;;;;4.90;3.13;;;16.70;72.40;;;;;;4981513;28;20038;-79
2023/09/30 09:08:49;;;;;;;3.45;2.45;;;16.80;72.40;;;;;;4981994;28;20180;-78
2023/09/30 09:11:15;;;;;;;4.88;3.20;;;16.80;72.30;;;;;;4981305;28;20117;-77
2023/09/30 09:13:55;;;;;;;3.72;2.88;;;16.90;72.30;;;;;;5014764;28;20112;-78
2023/09/30 09:16:22;;;;;;;4.13;2.83;;;16.90;72.30;;;;;;4998419;28;20037;-78
2023/09/30 09:18:49;;;;;;;4.53;2.88;;;16.90;72.10;;;;;;5015274;28;20057;-78
2023/09/30 09:21:20;;;;;;;4.82;2.92;;;17.00;72.00;;;;;;4981399;28;20181;-78
2023/09/30 09:23:48;;;;;;;4.20;2.85;;;17.10;72.00;;;;;;5014402;28;20052;-78
2023/09/30 09:26:29;;;;;;;5.53;3.13;;;17.10;71.90;;;;;;4996852;28;20026;-77
2023/09/30 09:29:04;;;;;;;4.57;3.17;;;17.20;71.90;;;;;;5013562;28;20045;-77
2023/09/30 09:31:36;;;;;;;3.67;2.72;;;17.30;71.80;;;;;;4997089;28;20034;-77
2023/09/30 09:34:03;;;;;;;3.88;2.83;;;17.30;71.70;;;;;;5013352;28;20030;-78
2023/09/30 09:36:49;;;;;;;5.03;3.00;;;17.40;71.60;;;;;;5014163;28;20030;-78
2023/09/30 09:39:16;;;;;;;4.32;2.95;;;17.40;71.70;;;;;;4997246;28;20053;-78
2023/09/30 09:41:53;;;;;;;4.32;3.03;;;17.50;71.50;;;;;;4996999;28;20026;-78
2023/09/30 09:44:23;;;;;;;3.97;2.83;;;17.60;71.60;;;;;;5014677;28;20137;-77
2023/09/30 09:46:50;;;;;;;4.25;2.53;;;17.70;71.60;;;;;;4981399;28;20038;-79
2023/09/30 09:49:20;;;;;;;4.60;3.15;;;17.70;71.60;;;;;;4996755;28;20042;-78
2023/09/30 09:51:48;;;;;;;4.00;2.63;;;17.80;71.70;;;;;;4980624;28;20061;-78
2023/09/30 09:54:15;;;;;;;4.88;2.78;;;17.90;71.70;;;;;;5014013;28;20522;-82
2023/09/30 09:56:45;;;;;;;4.55;2.67;;;18.00;72.30;;;;;;5013866;28;20034;-80
2023/09/30 09:59:12;;;;;;;4.70;3.08;;;18.00;71.70;;;;;;4980907;28;20038;-77
2023/09/30 10:01:40;;;;;;;5.07;3.45;;;18.10;72.30;;;;;;4997640;28;20356;-77
2023/09/30 10:04:06;;;;;;;4.00;2.63;;;18.20;71.70;;;;;;5013428;28;20128;-78
2023/09/30 10:06:38;;;;;;;4.28;2.67;;;18.30;71.60;;;;;;4996786;28;20040;-79
2023/09/30 10:09:08;;;;;;;4.05;2.70;;;18.30;71.60;;;;;;4980001;28;20058;-78
2023/09/30 10:11:36;;;;;;;4.80;2.97;;;18.40;71.70;;;;;;5013387;28;20030;-78
2023/09/30 10:14:03;;;;;;;4.53;2.83;;;18.50;71.70;;;;;;4997687;28;20037;-78
2023/09/30 10:16:48;;;;;;;4.28;2.80;;;18.60;71.80;;;;;;4997122;28;20041;-79
2023/09/30 10:19:22;;;;;;;4.50;2.87;;;18.70;71.90;;;;;;5012813;28;20038;-78
2023/09/30 10:22:16;;;;;;;4.45;2.60;;;18.70;71.80;;;;;;5014883;28;20021;-78
2023/09/30 10:24:42;;;;;;;5.35;3.08;;;18.80;71.80;;;;;;4996415;28;20061;-77
2023/09/30 10:27:31;;;;;;;4.50;3.10;;;18.90;71.70;;;;;;4996622;28;20109;-77
2023/09/30 10:30:06;;;;;;;5.45;3.50;;;19.00;72.00;;;;;;5012950;28;20073;-78
2023/09/30 10:32:50;;;;;;;5.80;3.35;;;19.10;71.90;;;;;;5012526;28;20022;-78
2023/09/30 10:35:31;;;;;;;5.63;3.38;;;19.10;72.00;;;;;;4997014;28;20026;-78
2023/09/30 10:38:22;;;;;;;6.68;3.13;;;19.20;72.00;;;;;;5012857;28;20065;-78
2023/09/30 10:40:51;;;;;;;5.47;3.05;;;19.30;72.10;;;;;;4996377;28;20030;-81
2023/09/30 10:43:40;;;;;;;4.38;2.83;;;19.30;72.00;;;;;;4996200;28;20456;-81
2023/09/30 10:46:27;;;;;;;5.80;2.83;;;19.40;72.10;;;;;;4996685;28;20459;-82
2023/09/30 10:48:57;;;;;;;4.57;2.58;;;19.40;72.20;;;;;;5013819;28;20532;-78
2023/09/30 10:51:23;;;;;;;2.97;2.33;;;19.50;72.20;;;;;;4995946;28;20027;-79
2023/09/30 10:54:00;;;;;;;4.47;2.70;;;19.60;72.30;;;;;;4996046;28;20037;-87
2023/09/30 10:56:33;;;;;;;3.70;2.55;;;19.60;72.40;;;;;;4996350;28;20459;-78
2023/09/30 10:59:00;;;;;;;5.55;2.67;;;19.70;72.50;;;;;;4995878;28;20105;-77
2023/09/30 11:01:32;;;;;;;5.13;3.25;;;19.70;72.50;;;;;;4995833;28;20447;-78
2023/09/30 11:04:03;;;;;;;4.38;2.63;;;19.80;72.70;;;;;;4996307;28;20374;-78
2023/09/30 11:06:29;;;;;;;4.88;2.60;;;19.80;72.60;;;;;;5013742;28;20058;-77
2023/09/30 11:08:58;;;;;;;5.40;2.80;;;19.80;72.70;;;;;;4995455;28;20053;-78
2023/09/30 11:11:38;;;;;;;4.70;2.55;;;19.90;72.80;;;;;;5012967;28;20093;-78
2023/09/30 11:14:20;;;;;;;4.72;2.70;;;19.90;72.90;;;;;;4996374;28;20080;-77
2023/09/30 11:16:46;;;;;;;4.28;2.45;;;19.90;72.90;;;;;;4996122;28;20026;-78
2023/09/30 11:19:13;;;;;;;4.47;2.50;;;20.00;72.90;;;;;;4996430;28;20390;-78
2023/09/30 11:21:39;;;;;;;3.58;2.42;;;20.00;73.00;;;;;;5016244;28;20088;-78
2023/09/30 11:24:07;;;;;;;4.82;2.75;;;20.00;73.00;;;;;;4999654;28;20034;-78
2023/09/30 11:26:33;;;;;;;3.83;2.40;;;20.10;73.10;;;;;;4984076;28;20067;-77
2023/09/30 11:29:07;;;;;;;3.30;2.10;;;20.10;73.10;;;;;;4983252;28;20033;-78
2023/09/30 11:31:33;;;;;;;2.70;1.75;;;20.10;73.20;;;;;;5015495;28;20034;-78
2023/09/30 11:34:03;;;;;;;3.22;2.25;;;20.20;73.10;;;;;;5016214;28;20105;-78
2023/09/30 11:36:31;;;;;;;4.28;2.53;;;20.20;73.10;;;;;;5015551;28;20030;-78
2023/09/30 11:38:57;;;;;;;3.33;2.20;;;20.20;73.10;;;;;;5015789;28;20398;-78
2023/09/30 11:41:32;;;;;;;4.15;2.20;;;20.20;73.10;;;;;;4982984;28;20026;-80
2023/09/30 11:44:10;;;;;;;3.40;2.28;;;20.30;73.10;;;;;;5000924;28;20034;-80
2023/09/30 11:47:04;;;;;;;3.47;1.85;;;20.30;73.20;;;;;;4999528;28;20108;-81
2023/09/30 11:49:40;;;;;;;3.10;1.88;;;20.40;73.30;;;;;;5015133;28;20037;-80
2023/09/30 11:52:11;;;;;;;3.85;2.15;;;20.40;73.10;;;;;;4983722;28;20379;-81
2023/09/30 11:54:41;;;;;;;3.78;2.00;;;20.40;73.20;;;;;;4999299;28;20061;-80
2023/09/30 11:57:10;;;;;;;3.08;1.73;;;20.40;73.20;;;;;;4999285;28;20037;-80
2023/09/30 11:59:37;;;;;;;3.15;1.98;;;20.50;73.20;;;;;;4998753;28;20206;-83
2023/09/30 12:02:05;;;;;;;2.78;1.60;;;20.40;73.30;;;;;;4983027;28;20026;-78
2023/09/30 12:04:31;;;;;;;2.35;1.70;;;20.50;73.30;;;;;;5015378;28;20454;-78
2023/09/30 12:06:57;;;;;;;3.55;1.70;;;20.50;73.30;;;;;;4983137;28;20032;-80
2023/09/30 12:09:27;;;;;;;2.63;1.60;;;20.60;73.40;;;;;;4998213;28;20062;-78
2023/09/30 12:11:54;;;;;;;2.42;1.80;;;20.60;73.40;;;;;;5014933;28;20037;-78
2023/09/30 12:14:20;;;;;;;3.30;1.77;;;20.60;73.40;;;;;;5014968;28;20088;-77
2023/09/30 12:16:47;;;;;;;2.55;1.70;;;20.60;73.40;;;;;;4998437;28;20395;-77
2023/09/30 12:19:20;;;;;;;3.50;1.67;;;20.70;73.40;;;;;;4998210;28;20044;-78
2023/09/30 12:21:47;;;;;;;3.63;1.95;;;20.70;73.50;;;;;;5016104;28;20025;-78
2023/09/30 12:24:19;;;;;;;2.40;1.50;;;20.70;73.40;;;;;;5016207;28;20498;-77
2023/09/30 12:26:48;;;;;;;3.25;1.63;;;20.80;73.50;;;;;;5014614;28;20061;-77
2023/09/30 12:29:18;;;;;;;3.90;1.60;;;20.80;74.00;;;;;;5015264;28;20048;-77
2023/09/30 12:31:45;;;;;;;3.70;1.83;;;20.80;73.40;;;;;;5015786;28;20065;-77
2023/09/30 12:34:12;;;;;;;3.35;1.73;;;20.80;73.40;;;;;;4966780;28;20410;-78
2023/09/30 12:36:41;;;;;;;2.83;1.55;;;20.80;73.30;;;;;;5016020;28;20471;-78
2023/09/30 12:39:11;;;;;;;2.40;1.50;;;20.90;73.40;;;;;;4982711;28;20033;-77
2023/09/30 12:41:41;;;;;;;2.70;1.50;;;20.90;73.30;;;;;;4998291;28;20373;-78
2023/09/30 12:44:08;;;;;;;2.00;1.50;;;20.90;73.20;;;;;;4997954;28;20030;-78
2023/09/30 12:46:36;;;;;;;2.95;1.60;;;20.90;73.20;;;;;;4998353;28;20364;-78
2023/09/30 12:49:06;;;;;;;2.80;1.60;;;21.00;73.20;;;;;;5015374;28;20045;-78
2023/09/30 12:51:32;;;;;;;2.92;1.60;;;21.00;73.90;;;;;;5014266;28;20037;-78
2023/09/30 12:53:59;;;;;;;2.83;1.52;;;21.00;73.20;;;;;;4981283;28;20030;-78